sensor_id;sensor_type;location;lat;lon;timestamp;P1;durP1;ratioP1;P2;durP2;ratioP2
68196;SDS011;55019;49.382;11.358;2023-07-13T00:00:33;3.60;;;3.08;;
68196;SDS011;55019;49.382;11.358;2023-07-13T00:02:59;3.92;;;2.70;;
68196;SDS011;55019;49.382;11.358;2023-07-13T00:05:25;3.33;;;2.60;;
68196;SDS011;55019;49.382;11.358;2023-07-13T00:07:51;4.90;;;2.88;;
68196;SDS011;55019;49.382;11.358;2023-07-13T00:10:17;3.75;;;2.65;;
68196;SDS011;55019;49.382;11.358;2023-07-13T00:12:43;3.35;;;2.95;;
68196;SDS011;55019;49.382;11.358;2023-07-13T00:15:12;5.00;;;3.08;;
68196;SDS011;55019;49.382;11.358;2023-07-13T00:17:49;3.80;;;2.75;;
68196;SDS011;55019;49.382;11.358;2023-07-13T00:20:15;3.95;;;2.53;;
68196;SDS011;55019;49.382;11.358;2023-07-13T00:22:41;3.75;;;2.40;;
68196;SDS011;55019;49.382;11.358;2023-07-13T00:25:09;4.43;;;3.10;;
68196;SDS011;55019;49.382;11.358;2023-07-13T00:27:36;4.15;;;2.75;;
68196;SDS011;55019;49.382;11.358;2023-07-13T00:30:02;3.60;;;2.60;;
68196;SDS011;55019;49.382;11.358;2023-07-13T00:32:30;3.70;;;3.00;;
68196;SDS011;55019;49.382;11.358;2023-07-13T00:34:56;4.57;;;2.50;;
68196;SDS011;55019;49.382;11.358;2023-07-13T00:37:22;3.05;;;2.65;;
68196;SDS011;55019;49.382;11.358;2023-07-13T00:39:48;5.13;;;2.63;;
68196;SDS011;55019;49.382;11.358;2023-07-13T00:42:14;2.78;;;2.17;;
68196;SDS011;55019;49.382;11.358;2023-07-13T00:44:40;6.55;;;2.78;;
68196;SDS011;55019;49.382;11.358;2023-07-13T00:47:06;4.07;;;3.20;;
68196;SDS011;55019;49.382;11.358;2023-07-13T00:49:32;2.90;;;1.90;;
68196;SDS011;55019;49.382;11.358;2023-07-13T00:52:04;2.53;;;2.17;;
68196;SDS011;55019;49.382;11.358;2023-07-13T00:54:35;2.92;;;2.45;;
68196;SDS011;55019;49.382;11.358;2023-07-13T00:57:06;2.97;;;2.10;;
68196;SDS011;55019;49.382;11.358;2023-07-13T00:59:35;2.67;;;2.15;;
68196;SDS011;55019;49.382;11.358;2023-07-13T01:02:02;3.00;;;2.50;;
68196;SDS011;55019;49.382;11.358;2023-07-13T01:07:15;3.17;;;2.20;;
68196;SDS011;55019;49.382;11.358;2023-07-13T01:09:41;4.18;;;2.20;;
68196;SDS011;55019;49.382;11.358;2023-07-13T01:12:07;4.70;;;2.20;;
68196;SDS011;55019;49.382;11.358;2023-07-13T01:14:33;3.45;;;2.28;;
68196;SDS011;55019;49.382;11.358;2023-07-13T01:16:59;3.45;;;2.05;;
68196;SDS011;55019;49.382;11.358;2023-07-13T01:19:32;3.65;;;2.30;;
68196;SDS011;55019;49.382;11.358;2023-07-13T01:22:11;5.80;;;3.75;;
68196;SDS011;55019;49.382;11.358;2023-07-13T01:24:39;2.20;;;1.80;;
68196;SDS011;55019;49.382;11.358;2023-07-13T01:27:08;2.97;;;2.08;;
68196;SDS011;55019;49.382;11.358;2023-07-13T01:29:39;2.92;;;1.85;;
68196;SDS011;55019;49.382;11.358;2023-07-13T01:32:09;2.67;;;1.95;;
68196;SDS011;55019;49.382;11.358;2023-07-13T01:34:37;3.22;;;1.80;;
68196;SDS011;55019;49.382;11.358;2023-07-13T01:37:04;3.13;;;1.80;;
68196;SDS011;55019;49.382;11.358;2023-07-13T01:39:30;2.13;;;1.75;;
68196;SDS011;55019;49.382;11.358;2023-07-13T01:41:57;2.60;;;1.75;;
68196;SDS011;55019;49.382;11.358;2023-07-13T01:44:22;2.45;;;1.65;;
68196;SDS011;55019;49.382;11.358;2023-07-13T01:46:48;2.70;;;2.20;;
68196;SDS011;55019;49.382;11.358;2023-07-13T01:49:14;2.92;;;2.03;;
68196;SDS011;55019;49.382;11.358;2023-07-13T01:51:39;4.30;;;1.85;;
68196;SDS011;55019;49.382;11.358;2023-07-13T01:54:05;2.10;;;1.65;;
68196;SDS011;55019;49.382;11.358;2023-07-13T01:56:31;3.03;;;1.73;;
68196;SDS011;55019;49.382;11.358;2023-07-13T01:58:56;1.77;;;1.40;;
68196;SDS011;55019;49.382;11.358;2023-07-13T02:01:22;2.05;;;1.48;;
68196;SDS011;55019;49.382;11.358;2023-07-13T02:03:48;2.45;;;1.88;;
68196;SDS011;55019;49.382;11.358;2023-07-13T02:06:13;2.92;;;1.33;;
68196;SDS011;55019;49.382;11.358;2023-07-13T02:08:40;1.83;;;1.48;;
68196;SDS011;55019;49.382;11.358;2023-07-13T02:11:07;2.50;;;2.10;;
68196;SDS011;55019;49.382;11.358;2023-07-13T02:13:32;1.40;;;1.17;;
68196;SDS011;55019;49.382;11.358;2023-07-13T02:15:58;1.90;;;1.35;;
68196;SDS011;55019;49.382;11.358;2023-07-13T02:18:24;1.15;;;1.02;;
68196;SDS011;55019;49.382;11.358;2023-07-13T02:20:49;1.20;;;1.10;;
68196;SDS011;55019;49.382;11.358;2023-07-13T02:23:15;2.78;;;1.45;;
68196;SDS011;55019;49.382;11.358;2023-07-13T02:25:41;2.38;;;1.20;;
68196;SDS011;55019;49.382;11.358;2023-07-13T02:28:07;2.75;;;1.33;;
68196;SDS011;55019;49.382;11.358;2023-07-13T02:30:34;1.63;;;1.20;;
68196;SDS011;55019;49.382;11.358;2023-07-13T02:33:00;1.92;;;1.35;;
68196;SDS011;55019;49.382;11.358;2023-07-13T02:35:26;1.48;;;1.15;;
68196;SDS011;55019;49.382;11.358;2023-07-13T02:37:52;1.65;;;1.23;;
68196;SDS011;55019;49.382;11.358;2023-07-13T02:40:17;2.78;;;1.25;;
68196;SDS011;55019;49.382;11.358;2023-07-13T02:42:43;1.50;;;1.10;;
68196;SDS011;55019;49.382;11.358;2023-07-13T02:45:09;2.25;;;1.40;;
68196;SDS011;55019;49.382;11.358;2023-07-13T02:47:35;5.40;;;1.25;;
68196;SDS011;55019;49.382;11.358;2023-07-13T02:50:01;1.05;;;0.88;;
68196;SDS011;55019;49.382;11.358;2023-07-13T02:52:28;1.30;;;1.17;;
68196;SDS011;55019;49.382;11.358;2023-07-13T02:54:54;1.63;;;1.13;;
68196;SDS011;55019;49.382;11.358;2023-07-13T02:57:19;2.38;;;1.38;;
68196;SDS011;55019;49.382;11.358;2023-07-13T02:59:45;1.73;;;0.98;;
68196;SDS011;55019;49.382;11.358;2023-07-13T03:02:11;1.92;;;0.75;;
68196;SDS011;55019;49.382;11.358;2023-07-13T03:04:37;1.15;;;0.80;;
68196;SDS011;55019;49.382;11.358;2023-07-13T03:07:03;3.05;;;1.38;;
68196;SDS011;55019;49.382;11.358;2023-07-13T03:09:35;2.72;;;0.70;;
68196;SDS011;55019;49.382;11.358;2023-07-13T03:12:01;3.33;;;1.10;;
68196;SDS011;55019;49.382;11.358;2023-07-13T03:14:30;1.80;;;0.73;;
68196;SDS011;55019;49.382;11.358;2023-07-13T03:16:56;1.77;;;1.00;;
68196;SDS011;55019;49.382;11.358;2023-07-13T03:19:25;1.30;;;0.73;;
68196;SDS011;55019;49.382;11.358;2023-07-13T03:21:51;2.00;;;0.90;;
68196;SDS011;55019;49.382;11.358;2023-07-13T03:24:17;1.75;;;1.17;;
68196;SDS011;55019;49.382;11.358;2023-07-13T03:26:43;2.63;;;1.02;;
68196;SDS011;55019;49.382;11.358;2023-07-13T03:29:09;2.75;;;1.23;;
68196;SDS011;55019;49.382;11.358;2023-07-13T03:31:36;0.88;;;0.60;;
68196;SDS011;55019;49.382;11.358;2023-07-13T03:34:02;1.90;;;1.00;;
68196;SDS011;55019;49.382;11.358;2023-07-13T03:36:29;1.75;;;0.80;;
68196;SDS011;55019;49.382;11.358;2023-07-13T03:38:59;1.90;;;0.88;;
68196;SDS011;55019;49.382;11.358;2023-07-13T03:41:36;0.80;;;0.65;;
68196;SDS011;55019;49.382;11.358;2023-07-13T03:44:02;1.80;;;0.77;;
68196;SDS011;55019;49.382;11.358;2023-07-13T03:46:28;1.02;;;0.73;;
68196;SDS011;55019;49.382;11.358;2023-07-13T03:48:57;1.27;;;0.82;;
68196;SDS011;55019;49.382;11.358;2023-07-13T03:51:22;0.95;;;0.73;;
68196;SDS011;55019;49.382;11.358;2023-07-13T03:53:49;1.90;;;0.90;;
68196;SDS011;55019;49.382;11.358;2023-07-13T03:56:17;1.50;;;0.95;;
68196;SDS011;55019;49.382;11.358;2023-07-13T04:01:17;1.85;;;0.60;;
68196;SDS011;55019;49.382;11.358;2023-07-13T04:03:44;1.45;;;1.00;;
68196;SDS011;55019;49.382;11.358;2023-07-13T04:08:46;1.80;;;0.82;;
68196;SDS011;55019;49.382;11.358;2023-07-13T04:11:17;1.88;;;0.77;;
68196;SDS011;55019;49.382;11.358;2023-07-13T04:13:44;0.55;;;0.40;;
68196;SDS011;55019;49.382;11.358;2023-07-13T04:16:11;1.13;;;0.65;;
68196;SDS011;55019;49.382;11.358;2023-07-13T04:18:37;0.80;;;0.68;;
68196;SDS011;55019;49.382;11.358;2023-07-13T04:21:02;1.10;;;0.85;;
68196;SDS011;55019;49.382;11.358;2023-07-13T04:23:28;1.80;;;0.70;;
68196;SDS011;55019;49.382;11.358;2023-07-13T04:25:54;2.33;;;0.80;;
68196;SDS011;55019;49.382;11.358;2023-07-13T04:28:21;1.52;;;0.95;;
68196;SDS011;55019;49.382;11.358;2023-07-13T04:30:48;2.47;;;0.90;;
68196;SDS011;55019;49.382;11.358;2023-07-13T04:33:14;1.58;;;0.80;;
68196;SDS011;55019;49.382;11.358;2023-07-13T04:35:42;2.05;;;0.77;;
68196;SDS011;55019;49.382;11.358;2023-07-13T04:40:36;2.67;;;0.98;;
68196;SDS011;55019;49.382;11.358;2023-07-13T04:43:02;1.33;;;0.85;;
68196;SDS011;55019;49.382;11.358;2023-07-13T04:45:28;1.65;;;0.90;;
68196;SDS011;55019;49.382;11.358;2023-07-13T04:47:54;1.30;;;0.80;;
68196;SDS011;55019;49.382;11.358;2023-07-13T04:50:19;0.80;;;0.60;;
68196;SDS011;55019;49.382;11.358;2023-07-13T04:52:51;1.85;;;0.82;;
68196;SDS011;55019;49.382;11.358;2023-07-13T04:55:17;1.88;;;0.85;;
68196;SDS011;55019;49.382;11.358;2023-07-13T04:57:44;1.08;;;0.73;;
68196;SDS011;55019;49.382;11.358;2023-07-13T05:00:10;1.10;;;0.68;;
68196;SDS011;55019;49.382;11.358;2023-07-13T05:02:38;2.72;;;0.93;;
68196;SDS011;55019;49.382;11.358;2023-07-13T05:05:05;1.20;;;0.65;;
68196;SDS011;55019;49.382;11.358;2023-07-13T05:07:31;2.50;;;1.00;;
68196;SDS011;55019;49.382;11.358;2023-07-13T05:09:58;2.67;;;0.88;;
68196;SDS011;55019;49.382;11.358;2023-07-13T05:12:25;0.70;;;0.65;;
68196;SDS011;55019;49.382;11.358;2023-07-13T05:14:52;2.22;;;0.93;;
68196;SDS011;55019;49.382;11.358;2023-07-13T05:17:17;2.13;;;0.70;;
68196;SDS011;55019;49.382;11.358;2023-07-13T05:19:43;1.20;;;0.88;;
68196;SDS011;55019;49.382;11.358;2023-07-13T05:22:09;3.13;;;0.75;;
68196;SDS011;55019;49.382;11.358;2023-07-13T05:24:35;1.70;;;0.75;;
68196;SDS011;55019;49.382;11.358;2023-07-13T05:27:00;0.95;;;0.70;;
68196;SDS011;55019;49.382;11.358;2023-07-13T05:29:26;1.30;;;0.50;;
68196;SDS011;55019;49.382;11.358;2023-07-13T05:31:52;1.63;;;0.80;;
68196;SDS011;55019;49.382;11.358;2023-07-13T05:34:18;1.00;;;0.73;;
68196;SDS011;55019;49.382;11.358;2023-07-13T05:36:43;2.00;;;0.90;;
68196;SDS011;55019;49.382;11.358;2023-07-13T05:39:09;4.15;;;1.02;;
68196;SDS011;55019;49.382;11.358;2023-07-13T05:41:35;2.05;;;0.60;;
68196;SDS011;55019;49.382;11.358;2023-07-13T05:44:01;1.25;;;1.00;;
68196;SDS011;55019;49.382;11.358;2023-07-13T05:46:26;0.95;;;0.65;;
68196;SDS011;55019;49.382;11.358;2023-07-13T05:48:52;1.50;;;0.60;;
68196;SDS011;55019;49.382;11.358;2023-07-13T05:51:18;1.25;;;0.57;;
68196;SDS011;55019;49.382;11.358;2023-07-13T05:53:43;1.25;;;0.65;;
68196;SDS011;55019;49.382;11.358;2023-07-13T05:56:09;1.35;;;0.60;;
68196;SDS011;55019;49.382;11.358;2023-07-13T05:58:35;1.52;;;0.70;;
68196;SDS011;55019;49.382;11.358;2023-07-13T06:01:02;1.50;;;0.93;;
68196;SDS011;55019;49.382;11.358;2023-07-13T06:03:30;3.03;;;1.00;;
68196;SDS011;55019;49.382;11.358;2023-07-13T06:05:56;1.58;;;0.85;;
68196;SDS011;55019;49.382;11.358;2023-07-13T06:08:22;1.52;;;0.98;;
68196;SDS011;55019;49.382;11.358;2023-07-13T06:10:48;2.40;;;0.73;;
68196;SDS011;55019;49.382;11.358;2023-07-13T06:13:13;2.50;;;1.20;;
68196;SDS011;55019;49.382;11.358;2023-07-13T06:15:39;3.60;;;1.13;;
68196;SDS011;55019;49.382;11.358;2023-07-13T06:18:05;1.65;;;0.63;;
68196;SDS011;55019;49.382;11.358;2023-07-13T06:20:33;1.65;;;0.60;;
68196;SDS011;55019;49.382;11.358;2023-07-13T06:23:00;1.92;;;0.70;;
68196;SDS011;55019;49.382;11.358;2023-07-13T06:25:26;0.88;;;0.60;;
68196;SDS011;55019;49.382;11.358;2023-07-13T06:27:52;2.60;;;0.90;;
68196;SDS011;55019;49.382;11.358;2023-07-13T06:30:18;1.85;;;0.95;;
68196;SDS011;55019;49.382;11.358;2023-07-13T06:32:43;1.02;;;0.63;;
68196;SDS011;55019;49.382;11.358;2023-07-13T06:35:09;2.30;;;0.90;;
68196;SDS011;55019;49.382;11.358;2023-07-13T06:37:37;1.13;;;0.75;;
68196;SDS011;55019;49.382;11.358;2023-07-13T06:40:03;2.58;;;0.80;;
68196;SDS011;55019;49.382;11.358;2023-07-13T06:42:29;0.98;;;0.68;;
68196;SDS011;55019;49.382;11.358;2023-07-13T06:44:55;2.38;;;0.70;;
68196;SDS011;55019;49.382;11.358;2023-07-13T06:47:21;1.67;;;0.80;;
68196;SDS011;55019;49.382;11.358;2023-07-13T06:49:46;2.15;;;0.70;;
68196;SDS011;55019;49.382;11.358;2023-07-13T06:52:12;2.00;;;0.60;;
68196;SDS011;55019;49.382;11.358;2023-07-13T06:54:38;1.33;;;0.80;;
68196;SDS011;55019;49.382;11.358;2023-07-13T06:57:03;2.45;;;0.65;;
68196;SDS011;55019;49.382;11.358;2023-07-13T06:59:29;2.95;;;0.80;;
68196;SDS011;55019;49.382;11.358;2023-07-13T07:01:55;1.20;;;0.70;;
68196;SDS011;55019;49.382;11.358;2023-07-13T07:04:20;2.08;;;1.42;;
68196;SDS011;55019;49.382;11.358;2023-07-13T07:06:46;1.92;;;0.73;;
68196;SDS011;55019;49.382;11.358;2023-07-13T07:09:12;1.95;;;1.00;;
68196;SDS011;55019;49.382;11.358;2023-07-13T07:11:39;2.80;;;0.50;;
68196;SDS011;55019;49.382;11.358;2023-07-13T07:14:04;1.80;;;0.80;;
68196;SDS011;55019;49.382;11.358;2023-07-13T07:16:30;2.55;;;0.60;;
68196;SDS011;55019;49.382;11.358;2023-07-13T07:18:57;0.93;;;0.50;;
68196;SDS011;55019;49.382;11.358;2023-07-13T07:21:22;1.50;;;0.90;;
68196;SDS011;55019;49.382;11.358;2023-07-13T07:23:48;1.75;;;0.60;;
68196;SDS011;55019;49.382;11.358;2023-07-13T07:26:14;2.38;;;0.77;;
68196;SDS011;55019;49.382;11.358;2023-07-13T07:28:40;0.95;;;0.50;;
68196;SDS011;55019;49.382;11.358;2023-07-13T07:31:06;1.95;;;0.60;;
68196;SDS011;55019;49.382;11.358;2023-07-13T07:33:32;1.42;;;0.70;;
68196;SDS011;55019;49.382;11.358;2023-07-13T07:36:00;2.08;;;1.00;;
68196;SDS011;55019;49.382;11.358;2023-07-13T07:38:26;3.00;;;0.70;;
68196;SDS011;55019;49.382;11.358;2023-07-13T07:40:52;1.27;;;0.73;;
68196;SDS011;55019;49.382;11.358;2023-07-13T07:43:19;1.70;;;0.60;;
68196;SDS011;55019;49.382;11.358;2023-07-13T07:45:45;0.90;;;0.60;;
68196;SDS011;55019;49.382;11.358;2023-07-13T07:48:11;2.45;;;0.70;;
68196;SDS011;55019;49.382;11.358;2023-07-13T07:50:37;0.90;;;0.63;;
68196;SDS011;55019;49.382;11.358;2023-07-13T07:53:04;2.20;;;0.73;;
68196;SDS011;55019;49.382;11.358;2023-07-13T07:55:33;4.88;;;0.73;;
68196;SDS011;55019;49.382;11.358;2023-07-13T07:58:00;2.10;;;0.90;;
68196;SDS011;55019;49.382;11.358;2023-07-13T08:00:26;2.88;;;0.90;;
68196;SDS011;55019;49.382;11.358;2023-07-13T08:02:52;1.20;;;0.60;;
68196;SDS011;55019;49.382;11.358;2023-07-13T08:05:17;3.25;;;0.88;;
68196;SDS011;55019;49.382;11.358;2023-07-13T08:07:43;2.90;;;0.80;;
68196;SDS011;55019;49.382;11.358;2023-07-13T08:10:09;3.05;;;0.80;;
68196;SDS011;55019;49.382;11.358;2023-07-13T08:12:35;3.15;;;1.45;;
68196;SDS011;55019;49.382;11.358;2023-07-13T08:15:03;2.38;;;0.80;;
68196;SDS011;55019;49.382;11.358;2023-07-13T08:17:30;1.90;;;0.80;;
68196;SDS011;55019;49.382;11.358;2023-07-13T08:19:56;1.15;;;0.55;;
68196;SDS011;55019;49.382;11.358;2023-07-13T08:22:22;1.50;;;0.80;;
68196;SDS011;55019;49.382;11.358;2023-07-13T08:24:49;1.98;;;0.75;;
68196;SDS011;55019;49.382;11.358;2023-07-13T08:27:21;2.15;;;1.00;;
68196;SDS011;55019;49.382;11.358;2023-07-13T08:32:14;1.92;;;0.80;;
68196;SDS011;55019;49.382;11.358;2023-07-13T08:34:39;1.42;;;0.77;;
68196;SDS011;55019;49.382;11.358;2023-07-13T08:37:06;1.98;;;0.77;;
68196;SDS011;55019;49.382;11.358;2023-07-13T08:39:32;2.38;;;0.82;;
68196;SDS011;55019;49.382;11.358;2023-07-13T08:42:00;1.65;;;0.95;;
68196;SDS011;55019;49.382;11.358;2023-07-13T08:47:01;1.85;;;0.75;;
68196;SDS011;55019;49.382;11.358;2023-07-13T08:49:28;1.00;;;0.75;;
68196;SDS011;55019;49.382;11.358;2023-07-13T08:54:36;2.95;;;1.40;;
68196;SDS011;55019;49.382;11.358;2023-07-13T08:57:11;1.63;;;0.65;;
68196;SDS011;55019;49.382;11.358;2023-07-13T08:59:39;1.70;;;0.95;;
68196;SDS011;55019;49.382;11.358;2023-07-13T09:04:45;1.60;;;0.60;;
68196;SDS011;55019;49.382;11.358;2023-07-13T09:07:23;2.13;;;0.80;;
68196;SDS011;55019;49.382;11.358;2023-07-13T09:09:55;1.52;;;0.50;;
68196;SDS011;55019;49.382;11.358;2023-07-13T09:15:30;2.05;;;0.68;;
68196;SDS011;55019;49.382;11.358;2023-07-13T09:18:01;1.77;;;0.50;;
68196;SDS011;55019;49.382;11.358;2023-07-13T09:20:42;1.05;;;0.57;;
68196;SDS011;55019;49.382;11.358;2023-07-13T09:23:17;3.13;;;0.80;;
68196;SDS011;55019;49.382;11.358;2023-07-13T09:25:49;1.05;;;0.75;;
68196;SDS011;55019;49.382;11.358;2023-07-13T09:28:24;1.20;;;0.73;;
68196;SDS011;55019;49.382;11.358;2023-07-13T09:33:24;1.10;;;0.45;;
68196;SDS011;55019;49.382;11.358;2023-07-13T09:35:50;0.95;;;0.40;;
68196;SDS011;55019;49.382;11.358;2023-07-13T09:38:18;1.85;;;1.20;;
68196;SDS011;55019;49.382;11.358;2023-07-13T09:46:57;0.52;;;0.40;;
68196;SDS011;55019;49.382;11.358;2023-07-13T09:49:27;1.33;;;0.43;;
68196;SDS011;55019;49.382;11.358;2023-07-13T09:52:14;0.95;;;0.70;;
68196;SDS011;55019;49.382;11.358;2023-07-13T09:54:44;0.82;;;0.55;;
68196;SDS011;55019;49.382;11.358;2023-07-13T09:57:18;1.92;;;0.73;;
68196;SDS011;55019;49.382;11.358;2023-07-13T09:59:48;1.33;;;0.43;;
68196;SDS011;55019;49.382;11.358;2023-07-13T10:02:37;0.90;;;0.75;;
68196;SDS011;55019;49.382;11.358;2023-07-13T10:05:06;1.40;;;0.60;;
68196;SDS011;55019;49.382;11.358;2023-07-13T10:07:40;1.20;;;0.50;;
68196;SDS011;55019;49.382;11.358;2023-07-13T10:10:16;3.45;;;0.77;;
68196;SDS011;55019;49.382;11.358;2023-07-13T10:12:47;2.95;;;0.73;;
68196;SDS011;55019;49.382;11.358;2023-07-13T10:15:18;2.13;;;0.80;;
68196;SDS011;55019;49.382;11.358;2023-07-13T10:17:49;1.95;;;0.80;;
68196;SDS011;55019;49.382;11.358;2023-07-13T10:20:16;2.05;;;0.60;;
68196;SDS011;55019;49.382;11.358;2023-07-13T10:25:17;2.65;;;0.80;;
68196;SDS011;55019;49.382;11.358;2023-07-13T10:27:46;2.63;;;0.80;;
68196;SDS011;55019;49.382;11.358;2023-07-13T10:32:43;1.55;;;0.63;;
68196;SDS011;55019;49.382;11.358;2023-07-13T10:35:11;1.77;;;0.90;;
68196;SDS011;55019;49.382;11.358;2023-07-13T10:37:44;2.28;;;0.80;;
68196;SDS011;55019;49.382;11.358;2023-07-13T10:40:16;2.42;;;1.17;;
68196;SDS011;55019;49.382;11.358;2023-07-13T10:42:46;1.35;;;0.80;;
68196;SDS011;55019;49.382;11.358;2023-07-13T10:45:15;1.25;;;0.93;;
68196;SDS011;55019;49.382;11.358;2023-07-13T10:47:44;0.93;;;0.57;;
68196;SDS011;55019;49.382;11.358;2023-07-13T10:50:21;1.52;;;0.82;;
68196;SDS011;55019;49.382;11.358;2023-07-13T10:52:51;0.95;;;0.57;;
68196;SDS011;55019;49.382;11.358;2023-07-13T10:55:40;1.02;;;0.65;;
68196;SDS011;55019;49.382;11.358;2023-07-13T11:03:33;1.63;;;1.00;;
68196;SDS011;55019;49.382;11.358;2023-07-13T11:06:08;1.45;;;0.75;;
68196;SDS011;55019;49.382;11.358;2023-07-13T11:11:32;2.30;;;0.80;;
68196;SDS011;55019;49.382;11.358;2023-07-13T11:21:18;2.65;;;1.45;;
68196;SDS011;55019;49.382;11.358;2023-07-13T11:23:52;2.35;;;1.00;;
68196;SDS011;55019;49.382;11.358;2023-07-13T11:31:43;0.90;;;0.63;;
68196;SDS011;55019;49.382;11.358;2023-07-13T11:34:16;1.63;;;1.00;;
68196;SDS011;55019;49.382;11.358;2023-07-13T11:36:49;1.58;;;1.25;;
68196;SDS011;55019;49.382;11.358;2023-07-13T11:42:12;1.98;;;0.88;;
68196;SDS011;55019;49.382;11.358;2023-07-13T11:44:46;1.15;;;0.73;;
68196;SDS011;55019;49.382;11.358;2023-07-13T11:47:18;0.90;;;0.60;;
68196;SDS011;55019;49.382;11.358;2023-07-13T11:49:50;2.00;;;1.17;;
68196;SDS011;55019;49.382;11.358;2023-07-13T11:52:22;3.72;;;0.80;;
68196;SDS011;55019;49.382;11.358;2023-07-13T11:54:54;1.63;;;0.77;;
68196;SDS011;55019;49.382;11.358;2023-07-13T11:57:25;2.03;;;0.60;;
68196;SDS011;55019;49.382;11.358;2023-07-13T11:59:52;1.02;;;0.60;;
68196;SDS011;55019;49.382;11.358;2023-07-13T12:02:33;1.85;;;0.98;;
68196;SDS011;55019;49.382;11.358;2023-07-13T12:05:02;0.75;;;0.50;;
68196;SDS011;55019;49.382;11.358;2023-07-13T12:07:30;2.35;;;0.93;;
68196;SDS011;55019;49.382;11.358;2023-07-13T12:12:42;1.30;;;1.10;;
68196;SDS011;55019;49.382;11.358;2023-07-13T12:15:13;1.33;;;0.95;;
68196;SDS011;55019;49.382;11.358;2023-07-13T12:17:38;1.63;;;1.10;;
68196;SDS011;55019;49.382;11.358;2023-07-13T12:20:29;1.88;;;0.80;;
68196;SDS011;55019;49.382;11.358;2023-07-13T12:23:00;0.80;;;0.68;;
68196;SDS011;55019;49.382;11.358;2023-07-13T12:25:27;1.73;;;0.95;;
68196;SDS011;55019;49.382;11.358;2023-07-13T12:27:55;1.88;;;0.80;;
68196;SDS011;55019;49.382;11.358;2023-07-13T12:30:24;3.63;;;0.85;;
68196;SDS011;55019;49.382;11.358;2023-07-13T12:32:55;1.67;;;0.70;;
68196;SDS011;55019;49.382;11.358;2023-07-13T12:35:22;2.60;;;1.17;;
68196;SDS011;55019;49.382;11.358;2023-07-13T12:37:47;1.25;;;0.70;;
68196;SDS011;55019;49.382;11.358;2023-07-13T12:40:16;1.73;;;0.70;;
68196;SDS011;55019;49.382;11.358;2023-07-13T12:42:48;0.82;;;0.82;;
68196;SDS011;55019;49.382;11.358;2023-07-13T12:45:20;1.75;;;0.70;;
68196;SDS011;55019;49.382;11.358;2023-07-13T12:47:49;1.55;;;0.88;;
68196;SDS011;55019;49.382;11.358;2023-07-13T12:50:19;2.25;;;1.23;;
68196;SDS011;55019;49.382;11.358;2023-07-13T12:52:52;1.05;;;0.80;;
68196;SDS011;55019;49.382;11.358;2023-07-13T12:55:19;1.83;;;0.68;;
68196;SDS011;55019;49.382;11.358;2023-07-13T12:57:57;1.02;;;0.63;;
68196;SDS011;55019;49.382;11.358;2023-07-13T13:00:33;2.28;;;0.90;;
68196;SDS011;55019;49.382;11.358;2023-07-13T13:03:21;1.90;;;0.77;;
68196;SDS011;55019;49.382;11.358;2023-07-13T13:06:01;1.42;;;0.60;;
68196;SDS011;55019;49.382;11.358;2023-07-13T13:08:35;1.20;;;0.82;;
68196;SDS011;55019;49.382;11.358;2023-07-13T13:11:02;1.15;;;0.60;;
68196;SDS011;55019;49.382;11.358;2023-07-13T13:13:27;1.75;;;0.70;;
68196;SDS011;55019;49.382;11.358;2023-07-13T13:15:54;2.75;;;0.90;;
68196;SDS011;55019;49.382;11.358;2023-07-13T13:18:20;2.70;;;1.05;;
68196;SDS011;55019;49.382;11.358;2023-07-13T13:20:47;1.38;;;0.70;;
68196;SDS011;55019;49.382;11.358;2023-07-13T13:23:14;1.17;;;0.70;;
68196;SDS011;55019;49.382;11.358;2023-07-13T13:25:45;1.30;;;0.65;;
68196;SDS011;55019;49.382;11.358;2023-07-13T13:28:15;1.02;;;0.65;;
68196;SDS011;55019;49.382;11.358;2023-07-13T13:30:42;1.80;;;1.27;;
68196;SDS011;55019;49.382;11.358;2023-07-13T13:33:10;2.42;;;0.90;;
68196;SDS011;55019;49.382;11.358;2023-07-13T13:35:37;1.55;;;1.08;;
68196;SDS011;55019;49.382;11.358;2023-07-13T13:38:09;0.88;;;0.88;;
68196;SDS011;55019;49.382;11.358;2023-07-13T13:40:36;2.20;;;1.63;;
68196;SDS011;55019;49.382;11.358;2023-07-13T13:43:02;2.97;;;0.93;;
68196;SDS011;55019;49.382;11.358;2023-07-13T13:45:30;1.75;;;1.20;;
68196;SDS011;55019;49.382;11.358;2023-07-13T13:47:56;1.65;;;0.73;;
68196;SDS011;55019;49.382;11.358;2023-07-13T13:50:22;2.58;;;0.85;;
68196;SDS011;55019;49.382;11.358;2023-07-13T13:52:48;2.05;;;1.75;;
68196;SDS011;55019;49.382;11.358;2023-07-13T13:55:18;2.50;;;1.42;;
68196;SDS011;55019;49.382;11.358;2023-07-13T13:57:46;1.67;;;1.27;;
68196;SDS011;55019;49.382;11.358;2023-07-13T14:00:13;1.48;;;1.00;;
68196;SDS011;55019;49.382;11.358;2023-07-13T14:02:40;5.70;;;3.03;;
68196;SDS011;55019;49.382;11.358;2023-07-13T14:05:12;2.20;;;1.10;;
68196;SDS011;55019;49.382;11.358;2023-07-13T14:07:40;3.83;;;1.10;;
68196;SDS011;55019;49.382;11.358;2023-07-13T14:10:10;3.17;;;1.20;;
68196;SDS011;55019;49.382;11.358;2023-07-13T14:12:38;1.88;;;1.60;;
68196;SDS011;55019;49.382;11.358;2023-07-13T14:15:04;1.50;;;0.90;;
68196;SDS011;55019;49.382;11.358;2023-07-13T14:19:59;2.13;;;0.75;;
68196;SDS011;55019;49.382;11.358;2023-07-13T14:22:25;1.88;;;1.13;;
68196;SDS011;55019;49.382;11.358;2023-07-13T14:27:18;1.75;;;1.20;;
68196;SDS011;55019;49.382;11.358;2023-07-13T14:29:44;3.05;;;1.05;;
68196;SDS011;55019;49.382;11.358;2023-07-13T14:32:11;2.33;;;0.90;;
68196;SDS011;55019;49.382;11.358;2023-07-13T14:37:08;2.53;;;0.80;;
68196;SDS011;55019;49.382;11.358;2023-07-13T14:39:38;1.65;;;0.93;;
68196;SDS011;55019;49.382;11.358;2023-07-13T14:42:04;1.63;;;1.00;;
68196;SDS011;55019;49.382;11.358;2023-07-13T14:44:30;3.80;;;1.10;;
68196;SDS011;55019;49.382;11.358;2023-07-13T14:49:42;3.08;;;0.90;;
68196;SDS011;55019;49.382;11.358;2023-07-13T14:52:16;0.70;;;0.70;;
68196;SDS011;55019;49.382;11.358;2023-07-13T14:54:44;1.45;;;0.93;;
68196;SDS011;55019;49.382;11.358;2023-07-13T14:57:12;1.52;;;0.82;;
68196;SDS011;55019;49.382;11.358;2023-07-13T14:59:38;1.27;;;0.73;;
68196;SDS011;55019;49.382;11.358;2023-07-13T15:02:27;1.30;;;0.75;;
68196;SDS011;55019;49.382;11.358;2023-07-13T15:04:55;2.15;;;0.98;;
68196;SDS011;55019;49.382;11.358;2023-07-13T15:07:22;2.13;;;0.98;;
68196;SDS011;55019;49.382;11.358;2023-07-13T15:09:48;2.20;;;0.70;;
68196;SDS011;55019;49.382;11.358;2023-07-13T15:12:16;2.22;;;1.00;;
68196;SDS011;55019;49.382;11.358;2023-07-13T15:14:42;2.88;;;0.85;;
68196;SDS011;55019;49.382;11.358;2023-07-13T15:17:24;1.33;;;0.85;;
68196;SDS011;55019;49.382;11.358;2023-07-13T15:19:55;1.95;;;1.75;;
68196;SDS011;55019;49.382;11.358;2023-07-13T15:22:21;1.92;;;1.10;;
68196;SDS011;55019;49.382;11.358;2023-07-13T15:24:47;2.38;;;1.83;;
68196;SDS011;55019;49.382;11.358;2023-07-13T15:27:13;2.28;;;0.90;;
68196;SDS011;55019;49.382;11.358;2023-07-13T15:29:38;0.93;;;0.77;;
68196;SDS011;55019;49.382;11.358;2023-07-13T15:32:14;1.52;;;1.20;;
68196;SDS011;55019;49.382;11.358;2023-07-13T15:34:40;1.20;;;0.95;;
68196;SDS011;55019;49.382;11.358;2023-07-13T15:37:15;2.53;;;1.13;;
68196;SDS011;55019;49.382;11.358;2023-07-13T15:39:42;2.25;;;1.17;;
68196;SDS011;55019;49.382;11.358;2023-07-13T15:42:12;2.08;;;1.50;;
68196;SDS011;55019;49.382;11.358;2023-07-13T15:44:40;4.05;;;1.73;;
68196;SDS011;55019;49.382;11.358;2023-07-13T15:47:09;1.90;;;1.13;;
68196;SDS011;55019;49.382;11.358;2023-07-13T15:49:38;2.47;;;1.38;;
68196;SDS011;55019;49.382;11.358;2023-07-13T15:52:04;1.17;;;0.70;;